sensor_id;sensor_type;location;lat;lon;timestamp;P1;durP1;ratioP1;P2;durP2;ratioP2
14348;SDS011;7258;50.376;8.742;2023-02-26T00:00:51;5.53;;;2.83;;
14348;SDS011;7258;50.376;8.742;2023-02-26T00:02:54;4.97;;;2.60;;
14348;SDS011;7258;50.376;8.742;2023-02-26T00:04:57;6.37;;;2.90;;
14348;SDS011;7258;50.376;8.742;2023-02-26T00:07:00;7.17;;;2.90;;
14348;SDS011;7258;50.376;8.742;2023-02-26T00:09:05;5.87;;;2.90;;
14348;SDS011;7258;50.376;8.742;2023-02-26T00:11:08;6.87;;;2.90;;
14348;SDS011;7258;50.376;8.742;2023-02-26T00:13:13;5.63;;;2.83;;
14348;SDS011;7258;50.376;8.742;2023-02-26T00:15:17;3.43;;;2.53;;
14348;SDS011;7258;50.376;8.742;2023-02-26T00:17:31;4.97;;;2.70;;
14348;SDS011;7258;50.376;8.742;2023-02-26T00:19:43;4.13;;;2.87;;
14348;SDS011;7258;50.376;8.742;2023-02-26T00:21:46;4.07;;;2.80;;
14348;SDS011;7258;50.376;8.742;2023-02-26T00:23:49;4.50;;;2.70;;
14348;SDS011;7258;50.376;8.742;2023-02-26T00:25:53;4.60;;;3.00;;
14348;SDS011;7258;50.376;8.742;2023-02-26T00:27:56;4.03;;;2.63;;
14348;SDS011;7258;50.376;8.742;2023-02-26T00:30:01;3.70;;;2.60;;
14348;SDS011;7258;50.376;8.742;2023-02-26T00:32:04;5.00;;;2.57;;
14348;SDS011;7258;50.376;8.742;2023-02-26T00:34:10;4.67;;;2.60;;
14348;SDS011;7258;50.376;8.742;2023-02-26T00:36:17;3.83;;;3.07;;
14348;SDS011;7258;50.376;8.742;2023-02-26T00:38:24;5.33;;;2.53;;
14348;SDS011;7258;50.376;8.742;2023-02-26T00:40:28;3.63;;;2.63;;
14348;SDS011;7258;50.376;8.742;2023-02-26T00:42:45;5.07;;;2.80;;
14348;SDS011;7258;50.376;8.742;2023-02-26T00:44:49;6.83;;;2.70;;
14348;SDS011;7258;50.376;8.742;2023-02-26T00:46:55;3.47;;;2.47;;
14348;SDS011;7258;50.376;8.742;2023-02-26T00:49:02;5.07;;;2.93;;
14348;SDS011;7258;50.376;8.742;2023-02-26T00:51:18;7.43;;;3.03;;
14348;SDS011;7258;50.376;8.742;2023-02-26T00:53:26;4.33;;;2.60;;
14348;SDS011;7258;50.376;8.742;2023-02-26T00:55:32;9.20;;;2.70;;
14348;SDS011;7258;50.376;8.742;2023-02-26T00:57:35;6.53;;;3.07;;
14348;SDS011;7258;50.376;8.742;2023-02-26T00:59:38;7.57;;;2.70;;
14348;SDS011;7258;50.376;8.742;2023-02-26T01:01:41;4.80;;;2.70;;
14348;SDS011;7258;50.376;8.742;2023-02-26T01:03:46;5.53;;;3.80;;
14348;SDS011;7258;50.376;8.742;2023-02-26T01:05:49;5.20;;;2.80;;
14348;SDS011;7258;50.376;8.742;2023-02-26T01:07:53;4.93;;;2.70;;
14348;SDS011;7258;50.376;8.742;2023-02-26T01:10:02;5.93;;;3.07;;
14348;SDS011;7258;50.376;8.742;2023-02-26T01:12:07;4.43;;;2.80;;
14348;SDS011;7258;50.376;8.742;2023-02-26T01:14:29;6.70;;;2.80;;
14348;SDS011;7258;50.376;8.742;2023-02-26T01:16:33;4.60;;;2.50;;
14348;SDS011;7258;50.376;8.742;2023-02-26T01:18:43;4.57;;;2.60;;
14348;SDS011;7258;50.376;8.742;2023-02-26T01:20:53;6.43;;;2.50;;
14348;SDS011;7258;50.376;8.742;2023-02-26T01:22:58;3.87;;;2.33;;
14348;SDS011;7258;50.376;8.742;2023-02-26T01:25:06;2.57;;;2.07;;
14348;SDS011;7258;50.376;8.742;2023-02-26T01:27:11;6.53;;;2.80;;
14348;SDS011;7258;50.376;8.742;2023-02-26T01:29:14;3.53;;;2.23;;
14348;SDS011;7258;50.376;8.742;2023-02-26T01:31:24;3.77;;;2.40;;
14348;SDS011;7258;50.376;8.742;2023-02-26T01:33:37;4.80;;;2.93;;
14348;SDS011;7258;50.376;8.742;2023-02-26T01:35:46;6.03;;;2.73;;
14348;SDS011;7258;50.376;8.742;2023-02-26T01:37:52;4.67;;;2.20;;
14348;SDS011;7258;50.376;8.742;2023-02-26T01:40:04;3.70;;;2.10;;
14348;SDS011;7258;50.376;8.742;2023-02-26T01:42:27;5.33;;;2.23;;
14348;SDS011;7258;50.376;8.742;2023-02-26T01:44:34;4.77;;;2.50;;
14348;SDS011;7258;50.376;8.742;2023-02-26T01:46:47;6.97;;;2.53;;
14348;SDS011;7258;50.376;8.742;2023-02-26T01:49:02;6.27;;;2.17;;
14348;SDS011;7258;50.376;8.742;2023-02-26T01:51:08;4.87;;;2.10;;
14348;SDS011;7258;50.376;8.742;2023-02-26T01:53:15;4.60;;;2.63;;
14348;SDS011;7258;50.376;8.742;2023-02-26T01:55:21;3.87;;;2.50;;
14348;SDS011;7258;50.376;8.742;2023-02-26T01:57:26;7.60;;;2.77;;
14348;SDS011;7258;50.376;8.742;2023-02-26T01:59:29;4.50;;;2.37;;
14348;SDS011;7258;50.376;8.742;2023-02-26T02:01:32;4.70;;;2.40;;
14348;SDS011;7258;50.376;8.742;2023-02-26T02:03:38;5.60;;;2.53;;
14348;SDS011;7258;50.376;8.742;2023-02-26T02:05:43;5.60;;;2.50;;
14348;SDS011;7258;50.376;8.742;2023-02-26T02:07:50;4.80;;;2.13;;
14348;SDS011;7258;50.376;8.742;2023-02-26T02:09:53;3.43;;;2.10;;
14348;SDS011;7258;50.376;8.742;2023-02-26T02:11:59;3.53;;;2.23;;
14348;SDS011;7258;50.376;8.742;2023-02-26T02:14:16;6.70;;;2.53;;
14348;SDS011;7258;50.376;8.742;2023-02-26T02:16:27;4.33;;;2.37;;
14348;SDS011;7258;50.376;8.742;2023-02-26T02:18:40;4.90;;;2.90;;
14348;SDS011;7258;50.376;8.742;2023-02-26T02:20:53;6.27;;;2.77;;
14348;SDS011;7258;50.376;8.742;2023-02-26T02:23:10;5.37;;;2.90;;
14348;SDS011;7258;50.376;8.742;2023-02-26T02:25:34;7.37;;;2.83;;
14348;SDS011;7258;50.376;8.742;2023-02-26T02:27:57;4.13;;;2.60;;
14348;SDS011;7258;50.376;8.742;2023-02-26T02:30:06;4.57;;;2.40;;
14348;SDS011;7258;50.376;8.742;2023-02-26T02:32:21;4.87;;;2.50;;
14348;SDS011;7258;50.376;8.742;2023-02-26T02:34:30;4.47;;;2.47;;
14348;SDS011;7258;50.376;8.742;2023-02-26T02:36:37;6.73;;;2.60;;
14348;SDS011;7258;50.376;8.742;2023-02-26T02:38:44;4.90;;;2.43;;
14348;SDS011;7258;50.376;8.742;2023-02-26T02:40:50;4.90;;;2.80;;
14348;SDS011;7258;50.376;8.742;2023-02-26T02:42:58;7.87;;;2.70;;
14348;SDS011;7258;50.376;8.742;2023-02-26T02:45:06;5.60;;;2.87;;
14348;SDS011;7258;50.376;8.742;2023-02-26T02:47:12;5.33;;;2.83;;
14348;SDS011;7258;50.376;8.742;2023-02-26T02:49:20;5.73;;;2.83;;
14348;SDS011;7258;50.376;8.742;2023-02-26T02:51:27;3.83;;;2.70;;
14348;SDS011;7258;50.376;8.742;2023-02-26T02:53:33;7.37;;;2.70;;
14348;SDS011;7258;50.376;8.742;2023-02-26T02:55:40;5.50;;;3.37;;
14348;SDS011;7258;50.376;8.742;2023-02-26T02:57:48;5.27;;;3.03;;
14348;SDS011;7258;50.376;8.742;2023-02-26T02:59:55;6.03;;;3.10;;
14348;SDS011;7258;50.376;8.742;2023-02-26T03:02:03;4.93;;;3.07;;
14348;SDS011;7258;50.376;8.742;2023-02-26T03:04:12;5.80;;;3.20;;
14348;SDS011;7258;50.376;8.742;2023-02-26T03:06:19;5.47;;;3.07;;
14348;SDS011;7258;50.376;8.742;2023-02-26T03:08:23;4.73;;;3.20;;
14348;SDS011;7258;50.376;8.742;2023-02-26T03:10:30;4.47;;;3.17;;
14348;SDS011;7258;50.376;8.742;2023-02-26T03:12:34;5.60;;;3.50;;
14348;SDS011;7258;50.376;8.742;2023-02-26T03:14:37;5.97;;;3.30;;
14348;SDS011;7258;50.376;8.742;2023-02-26T03:16:51;5.07;;;3.20;;
14348;SDS011;7258;50.376;8.742;2023-02-26T03:19:03;5.80;;;3.60;;
14348;SDS011;7258;50.376;8.742;2023-02-26T03:21:16;6.20;;;3.80;;
14348;SDS011;7258;50.376;8.742;2023-02-26T03:23:26;6.07;;;3.53;;
14348;SDS011;7258;50.376;8.742;2023-02-26T03:25:37;6.77;;;3.67;;
14348;SDS011;7258;50.376;8.742;2023-02-26T03:27:46;6.90;;;3.93;;
14348;SDS011;7258;50.376;8.742;2023-02-26T03:29:55;5.07;;;3.53;;
14348;SDS011;7258;50.376;8.742;2023-02-26T03:32:04;5.53;;;3.80;;
14348;SDS011;7258;50.376;8.742;2023-02-26T03:34:12;4.30;;;3.37;;
14348;SDS011;7258;50.376;8.742;2023-02-26T03:36:22;5.03;;;3.80;;
14348;SDS011;7258;50.376;8.742;2023-02-26T03:38:29;5.60;;;3.83;;
14348;SDS011;7258;50.376;8.742;2023-02-26T03:40:38;5.33;;;3.47;;
14348;SDS011;7258;50.376;8.742;2023-02-26T03:42:47;6.90;;;3.87;;
14348;SDS011;7258;50.376;8.742;2023-02-26T03:44:56;4.77;;;3.63;;
14348;SDS011;7258;50.376;8.742;2023-02-26T03:47:02;5.43;;;3.70;;
14348;SDS011;7258;50.376;8.742;2023-02-26T03:49:10;6.53;;;3.87;;
14348;SDS011;7258;50.376;8.742;2023-02-26T03:51:17;4.73;;;3.73;;
14348;SDS011;7258;50.376;8.742;2023-02-26T03:53:24;9.27;;;3.63;;
14348;SDS011;7258;50.376;8.742;2023-02-26T03:55:30;5.60;;;3.83;;
14348;SDS011;7258;50.376;8.742;2023-02-26T03:57:37;6.67;;;3.53;;
14348;SDS011;7258;50.376;8.742;2023-02-26T03:59:40;5.37;;;3.53;;
14348;SDS011;7258;50.376;8.742;2023-02-26T04:01:45;6.00;;;3.63;;
14348;SDS011;7258;50.376;8.742;2023-02-26T04:03:54;5.70;;;3.70;;
14348;SDS011;7258;50.376;8.742;2023-02-26T04:06:01;4.53;;;3.47;;
14348;SDS011;7258;50.376;8.742;2023-02-26T04:08:06;6.97;;;3.43;;
14348;SDS011;7258;50.376;8.742;2023-02-26T04:10:12;5.93;;;3.70;;
14348;SDS011;7258;50.376;8.742;2023-02-26T04:12:19;6.40;;;4.00;;
14348;SDS011;7258;50.376;8.742;2023-02-26T04:14:22;5.20;;;3.63;;
14348;SDS011;7258;50.376;8.742;2023-02-26T04:16:26;7.93;;;4.17;;
14348;SDS011;7258;50.376;8.742;2023-02-26T04:18:29;5.03;;;3.40;;
14348;SDS011;7258;50.376;8.742;2023-02-26T04:20:32;6.33;;;3.40;;
14348;SDS011;7258;50.376;8.742;2023-02-26T04:22:35;7.40;;;3.97;;
14348;SDS011;7258;50.376;8.742;2023-02-26T04:24:39;3.63;;;3.07;;
14348;SDS011;7258;50.376;8.742;2023-02-26T04:26:43;4.13;;;3.10;;
14348;SDS011;7258;50.376;8.742;2023-02-26T04:28:46;7.67;;;3.77;;
14348;SDS011;7258;50.376;8.742;2023-02-26T04:30:49;6.60;;;3.83;;
14348;SDS011;7258;50.376;8.742;2023-02-26T04:32:52;7.73;;;3.50;;
14348;SDS011;7258;50.376;8.742;2023-02-26T04:34:55;5.87;;;4.00;;
14348;SDS011;7258;50.376;8.742;2023-02-26T04:36:58;4.93;;;3.50;;
14348;SDS011;7258;50.376;8.742;2023-02-26T04:39:01;7.50;;;3.73;;
14348;SDS011;7258;50.376;8.742;2023-02-26T04:41:04;6.13;;;3.33;;
14348;SDS011;7258;50.376;8.742;2023-02-26T04:43:09;4.07;;;3.40;;
14348;SDS011;7258;50.376;8.742;2023-02-26T04:45:12;4.93;;;3.20;;
14348;SDS011;7258;50.376;8.742;2023-02-26T04:47:14;6.10;;;3.70;;
14348;SDS011;7258;50.376;8.742;2023-02-26T04:49:17;8.23;;;3.53;;
14348;SDS011;7258;50.376;8.742;2023-02-26T04:51:21;5.50;;;3.27;;
14348;SDS011;7258;50.376;8.742;2023-02-26T04:53:24;8.00;;;3.50;;
14348;SDS011;7258;50.376;8.742;2023-02-26T04:55:27;4.17;;;3.53;;
14348;SDS011;7258;50.376;8.742;2023-02-26T04:57:30;5.50;;;3.40;;
14348;SDS011;7258;50.376;8.742;2023-02-26T04:59:34;5.03;;;3.50;;
14348;SDS011;7258;50.376;8.742;2023-02-26T05:01:39;5.40;;;3.43;;
14348;SDS011;7258;50.376;8.742;2023-02-26T05:03:42;4.10;;;3.37;;
14348;SDS011;7258;50.376;8.742;2023-02-26T05:05:45;5.00;;;3.27;;
14348;SDS011;7258;50.376;8.742;2023-02-26T05:07:48;4.27;;;3.30;;
14348;SDS011;7258;50.376;8.742;2023-02-26T05:09:54;6.47;;;3.67;;
14348;SDS011;7258;50.376;8.742;2023-02-26T05:11:57;3.30;;;2.97;;
14348;SDS011;7258;50.376;8.742;2023-02-26T05:14:00;5.57;;;3.83;;
14348;SDS011;7258;50.376;8.742;2023-02-26T05:16:05;6.40;;;3.47;;
14348;SDS011;7258;50.376;8.742;2023-02-26T05:18:09;3.93;;;3.23;;
14348;SDS011;7258;50.376;8.742;2023-02-26T05:20:12;4.73;;;3.17;;
14348;SDS011;7258;50.376;8.742;2023-02-26T05:22:15;7.30;;;3.27;;
14348;SDS011;7258;50.376;8.742;2023-02-26T05:24:18;5.43;;;2.90;;
14348;SDS011;7258;50.376;8.742;2023-02-26T05:26:21;4.67;;;3.27;;
14348;SDS011;7258;50.376;8.742;2023-02-26T05:28:25;5.37;;;3.43;;
14348;SDS011;7258;50.376;8.742;2023-02-26T05:30:28;9.43;;;3.33;;
14348;SDS011;7258;50.376;8.742;2023-02-26T05:32:33;5.77;;;3.20;;
14348;SDS011;7258;50.376;8.742;2023-02-26T05:34:36;4.30;;;3.17;;
14348;SDS011;7258;50.376;8.742;2023-02-26T05:36:39;4.47;;;2.63;;
14348;SDS011;7258;50.376;8.742;2023-02-26T05:38:42;4.90;;;2.90;;
14348;SDS011;7258;50.376;8.742;2023-02-26T05:40:45;5.60;;;2.80;;
14348;SDS011;7258;50.376;8.742;2023-02-26T05:42:48;6.30;;;2.90;;
14348;SDS011;7258;50.376;8.742;2023-02-26T05:44:52;5.53;;;2.87;;
14348;SDS011;7258;50.376;8.742;2023-02-26T05:46:55;5.60;;;2.60;;
14348;SDS011;7258;50.376;8.742;2023-02-26T05:48:59;4.23;;;2.70;;
14348;SDS011;7258;50.376;8.742;2023-02-26T05:51:02;4.60;;;2.90;;
14348;SDS011;7258;50.376;8.742;2023-02-26T05:53:05;3.97;;;2.87;;
14348;SDS011;7258;50.376;8.742;2023-02-26T05:55:08;4.43;;;2.50;;
14348;SDS011;7258;50.376;8.742;2023-02-26T05:57:12;3.63;;;2.50;;
14348;SDS011;7258;50.376;8.742;2023-02-26T05:59:15;2.97;;;2.60;;
14348;SDS011;7258;50.376;8.742;2023-02-26T06:01:18;7.60;;;3.00;;
14348;SDS011;7258;50.376;8.742;2023-02-26T06:03:21;2.33;;;2.13;;
14348;SDS011;7258;50.376;8.742;2023-02-26T06:05:26;4.63;;;2.40;;
14348;SDS011;7258;50.376;8.742;2023-02-26T06:07:29;4.33;;;2.60;;
14348;SDS011;7258;50.376;8.742;2023-02-26T06:09:32;4.17;;;2.30;;
14348;SDS011;7258;50.376;8.742;2023-02-26T06:11:35;4.47;;;2.33;;
14348;SDS011;7258;50.376;8.742;2023-02-26T06:13:39;3.47;;;2.50;;
14348;SDS011;7258;50.376;8.742;2023-02-26T06:15:43;4.83;;;2.50;;
14348;SDS011;7258;50.376;8.742;2023-02-26T06:17:46;7.27;;;2.80;;
14348;SDS011;7258;50.376;8.742;2023-02-26T06:19:49;5.67;;;2.93;;
14348;SDS011;7258;50.376;8.742;2023-02-26T06:21:54;5.43;;;2.63;;
14348;SDS011;7258;50.376;8.742;2023-02-26T06:23:57;4.93;;;2.67;;
14348;SDS011;7258;50.376;8.742;2023-02-26T06:26:00;4.03;;;2.43;;
14348;SDS011;7258;50.376;8.742;2023-02-26T06:28:03;2.70;;;2.43;;
14348;SDS011;7258;50.376;8.742;2023-02-26T06:30:06;4.20;;;2.40;;
14348;SDS011;7258;50.376;8.742;2023-02-26T06:32:10;4.53;;;2.50;;
14348;SDS011;7258;50.376;8.742;2023-02-26T06:34:13;3.50;;;2.57;;
14348;SDS011;7258;50.376;8.742;2023-02-26T06:36:17;3.93;;;2.60;;
14348;SDS011;7258;50.376;8.742;2023-02-26T06:38:22;3.63;;;2.70;;
14348;SDS011;7258;50.376;8.742;2023-02-26T06:40:25;7.23;;;2.97;;
14348;SDS011;7258;50.376;8.742;2023-02-26T06:42:28;6.03;;;3.00;;
14348;SDS011;7258;50.376;8.742;2023-02-26T06:44:34;4.37;;;2.60;;
14348;SDS011;7258;50.376;8.742;2023-02-26T06:46:37;2.80;;;2.50;;
14348;SDS011;7258;50.376;8.742;2023-02-26T06:48:40;5.33;;;2.50;;
14348;SDS011;7258;50.376;8.742;2023-02-26T06:50:43;4.20;;;2.50;;
14348;SDS011;7258;50.376;8.742;2023-02-26T06:52:46;5.10;;;2.90;;
14348;SDS011;7258;50.376;8.742;2023-02-26T06:54:50;5.23;;;2.47;;
14348;SDS011;7258;50.376;8.742;2023-02-26T06:56:53;5.27;;;2.80;;
14348;SDS011;7258;50.376;8.742;2023-02-26T06:58:58;3.70;;;2.73;;
14348;SDS011;7258;50.376;8.742;2023-02-26T07:01:03;7.10;;;3.10;;
14348;SDS011;7258;50.376;8.742;2023-02-26T07:03:07;4.57;;;2.93;;
14348;SDS011;7258;50.376;8.742;2023-02-26T07:05:13;3.37;;;2.63;;
14348;SDS011;7258;50.376;8.742;2023-02-26T07:07:16;4.57;;;3.00;;
14348;SDS011;7258;50.376;8.742;2023-02-26T07:09:20;4.87;;;2.63;;
14348;SDS011;7258;50.376;8.742;2023-02-26T07:11:24;4.00;;;3.17;;
14348;SDS011;7258;50.376;8.742;2023-02-26T07:13:27;4.63;;;3.40;;
14348;SDS011;7258;50.376;8.742;2023-02-26T07:15:30;3.77;;;2.87;;
14348;SDS011;7258;50.376;8.742;2023-02-26T07:17:34;4.40;;;2.87;;
14348;SDS011;7258;50.376;8.742;2023-02-26T07:19:37;4.50;;;2.70;;
14348;SDS011;7258;50.376;8.742;2023-02-26T07:21:40;4.03;;;2.53;;
14348;SDS011;7258;50.376;8.742;2023-02-26T07:23:43;4.10;;;2.70;;
14348;SDS011;7258;50.376;8.742;2023-02-26T07:25:47;3.43;;;2.30;;
14348;SDS011;7258;50.376;8.742;2023-02-26T07:27:52;3.47;;;2.60;;
14348;SDS011;7258;50.376;8.742;2023-02-26T07:29:56;5.17;;;2.40;;
14348;SDS011;7258;50.376;8.742;2023-02-26T07:32:00;2.67;;;2.40;;
14348;SDS011;7258;50.376;8.742;2023-02-26T07:34:03;3.23;;;2.43;;
14348;SDS011;7258;50.376;8.742;2023-02-26T07:36:06;3.33;;;2.10;;
14348;SDS011;7258;50.376;8.742;2023-02-26T07:38:09;3.53;;;2.27;;
14348;SDS011;7258;50.376;8.742;2023-02-26T07:40:12;2.47;;;2.27;;
14348;SDS011;7258;50.376;8.742;2023-02-26T07:42:16;2.80;;;2.07;;
14348;SDS011;7258;50.376;8.742;2023-02-26T07:44:20;3.40;;;2.60;;
14348;SDS011;7258;50.376;8.742;2023-02-26T07:46:23;2.73;;;2.43;;
14348;SDS011;7258;50.376;8.742;2023-02-26T07:48:27;3.20;;;2.23;;
14348;SDS011;7258;50.376;8.742;2023-02-26T07:50:30;3.97;;;2.40;;
14348;SDS011;7258;50.376;8.742;2023-02-26T07:52:33;5.57;;;2.30;;
14348;SDS011;7258;50.376;8.742;2023-02-26T07:54:36;3.60;;;2.40;;
14348;SDS011;7258;50.376;8.742;2023-02-26T07:56:39;2.30;;;2.10;;
14348;SDS011;7258;50.376;8.742;2023-02-26T07:58:43;2.30;;;2.10;;
14348;SDS011;7258;50.376;8.742;2023-02-26T08:00:47;6.33;;;2.27;;
14348;SDS011;7258;50.376;8.742;2023-02-26T08:02:52;3.93;;;2.57;;
14348;SDS011;7258;50.376;8.742;2023-02-26T08:04:55;2.97;;;1.90;;
14348;SDS011;7258;50.376;8.742;2023-02-26T08:06:58;2.83;;;2.00;;
14348;SDS011;7258;50.376;8.742;2023-02-26T08:09:02;2.50;;;2.30;;
14348;SDS011;7258;50.376;8.742;2023-02-26T08:11:06;5.27;;;2.20;;
14348;SDS011;7258;50.376;8.742;2023-02-26T08:13:09;3.40;;;2.27;;
14348;SDS011;7258;50.376;8.742;2023-02-26T08:15:12;2.97;;;2.37;;
14348;SDS011;7258;50.376;8.742;2023-02-26T08:17:16;2.67;;;2.10;;
14348;SDS011;7258;50.376;8.742;2023-02-26T08:19:19;3.67;;;2.03;;
14348;SDS011;7258;50.376;8.742;2023-02-26T08:21:22;3.43;;;2.17;;
14348;SDS011;7258;50.376;8.742;2023-02-26T08:23:25;4.40;;;2.20;;
14348;SDS011;7258;50.376;8.742;2023-02-26T08:25:28;4.10;;;2.33;;
14348;SDS011;7258;50.376;8.742;2023-02-26T08:27:31;2.43;;;2.20;;
14348;SDS011;7258;50.376;8.742;2023-02-26T08:29:33;2.30;;;2.10;;
14348;SDS011;7258;50.376;8.742;2023-02-26T08:31:37;4.97;;;2.23;;
14348;SDS011;7258;50.376;8.742;2023-02-26T08:33:42;3.43;;;2.20;;
14348;SDS011;7258;50.376;8.742;2023-02-26T08:35:45;4.40;;;2.67;;
14348;SDS011;7258;50.376;8.742;2023-02-26T08:37:48;3.17;;;2.33;;
14348;SDS011;7258;50.376;8.742;2023-02-26T08:39:51;2.53;;;1.87;;
14348;SDS011;7258;50.376;8.742;2023-02-26T08:41:54;2.87;;;2.17;;
14348;SDS011;7258;50.376;8.742;2023-02-26T08:43:57;2.63;;;2.07;;
14348;SDS011;7258;50.376;8.742;2023-02-26T08:46:01;2.47;;;1.87;;
14348;SDS011;7258;50.376;8.742;2023-02-26T08:48:04;3.10;;;2.13;;
14348;SDS011;7258;50.376;8.742;2023-02-26T08:50:12;3.33;;;1.90;;
14348;SDS011;7258;50.376;8.742;2023-02-26T08:52:15;4.17;;;2.10;;
14348;SDS011;7258;50.376;8.742;2023-02-26T08:54:17;3.00;;;1.70;;
14348;SDS011;7258;50.376;8.742;2023-02-26T08:56:20;3.93;;;2.30;;
14348;SDS011;7258;50.376;8.742;2023-02-26T08:58:24;4.47;;;1.97;;
14348;SDS011;7258;50.376;8.742;2023-02-26T09:00:27;2.80;;;1.70;;
14348;SDS011;7258;50.376;8.742;2023-02-26T09:02:30;3.37;;;2.40;;
14348;SDS011;7258;50.376;8.742;2023-02-26T09:04:33;3.50;;;2.53;;
14348;SDS011;7258;50.376;8.742;2023-02-26T09:06:37;2.87;;;2.20;;
14348;SDS011;7258;50.376;8.742;2023-02-26T09:08:40;1.90;;;1.80;;
14348;SDS011;7258;50.376;8.742;2023-02-26T09:10:43;2.40;;;1.90;;
14348;SDS011;7258;50.376;8.742;2023-02-26T09:12:45;4.43;;;1.77;;
14348;SDS011;7258;50.376;8.742;2023-02-26T09:14:49;3.00;;;2.00;;
14348;SDS011;7258;50.376;8.742;2023-02-26T09:16:52;2.03;;;1.70;;
14348;SDS011;7258;50.376;8.742;2023-02-26T09:18:55;3.30;;;1.80;;
14348;SDS011;7258;50.376;8.742;2023-02-26T09:20:58;2.70;;;1.80;;
14348;SDS011;7258;50.376;8.742;2023-02-26T09:23:02;2.77;;;1.80;;
14348;SDS011;7258;50.376;8.742;2023-02-26T09:25:05;2.10;;;1.90;;
14348;SDS011;7258;50.376;8.742;2023-02-26T09:27:09;1.90;;;1.60;;
14348;SDS011;7258;50.376;8.742;2023-02-26T09:29:12;2.40;;;1.73;;
14348;SDS011;7258;50.376;8.742;2023-02-26T09:31:15;3.87;;;2.07;;
14348;SDS011;7258;50.376;8.742;2023-02-26T09:33:18;1.83;;;1.40;;
14348;SDS011;7258;50.376;8.742;2023-02-26T09:35:22;2.40;;;1.90;;
14348;SDS011;7258;50.376;8.742;2023-02-26T09:37:24;2.07;;;1.87;;
14348;SDS011;7258;50.376;8.742;2023-02-26T09:39:29;3.20;;;1.70;;
14348;SDS011;7258;50.376;8.742;2023-02-26T09:41:33;3.80;;;1.87;;
14348;SDS011;7258;50.376;8.742;2023-02-26T09:46:12;2.60;;;1.60;;
14348;SDS011;7258;50.376;8.742;2023-02-26T09:48:25;2.57;;;1.60;;
14348;SDS011;7258;50.376;8.742;2023-02-26T09:50:37;3.43;;;1.67;;
14348;SDS011;7258;50.376;8.742;2023-02-26T09:52:44;2.03;;;1.77;;
14348;SDS011;7258;50.376;8.742;2023-02-26T09:54:55;1.60;;;1.50;;
14348;SDS011;7258;50.376;8.742;2023-02-26T09:57:00;1.77;;;1.67;;
14348;SDS011;7258;50.376;8.742;2023-02-26T09:59:03;2.30;;;1.60;;
14348;SDS011;7258;50.376;8.742;2023-02-26T10:01:08;1.50;;;1.40;;
14348;SDS011;7258;50.376;8.742;2023-02-26T10:03:18;2.60;;;1.87;;
14348;SDS011;7258;50.376;8.742;2023-02-26T10:05:29;2.00;;;1.50;;
14348;SDS011;7258;50.376;8.742;2023-02-26T10:07:42;2.90;;;1.57;;
14348;SDS011;7258;50.376;8.742;2023-02-26T10:09:56;2.70;;;1.63;;
14348;SDS011;7258;50.376;8.742;2023-02-26T10:12:04;2.63;;;1.80;;
14348;SDS011;7258;50.376;8.742;2023-02-26T10:14:13;2.47;;;1.77;;
14348;SDS011;7258;50.376;8.742;2023-02-26T10:16:21;1.73;;;1.40;;
14348;SDS011;7258;50.376;8.742;2023-02-26T10:18:28;2.23;;;1.47;;
14348;SDS011;7258;50.376;8.742;2023-02-26T10:20:36;2.37;;;1.50;;
14348;SDS011;7258;50.376;8.742;2023-02-26T10:22:47;1.73;;;1.30;;
14348;SDS011;7258;50.376;8.742;2023-02-26T10:24:59;3.03;;;1.30;;
14348;SDS011;7258;50.376;8.742;2023-02-26T10:27:08;2.73;;;1.50;;
14348;SDS011;7258;50.376;8.742;2023-02-26T10:29:17;2.57;;;1.67;;
14348;SDS011;7258;50.376;8.742;2023-02-26T10:31:26;2.50;;;1.40;;
14348;SDS011;7258;50.376;8.742;2023-02-26T10:33:37;3.53;;;1.20;;
14348;SDS011;7258;50.376;8.742;2023-02-26T10:35:46;2.30;;;1.60;;
14348;SDS011;7258;50.376;8.742;2023-02-26T10:37:55;2.27;;;1.40;;
14348;SDS011;7258;50.376;8.742;2023-02-26T10:40:03;2.20;;;1.30;;
14348;SDS011;7258;50.376;8.742;2023-02-26T10:42:14;1.20;;;1.20;;
14348;SDS011;7258;50.376;8.742;2023-02-26T10:44:23;2.37;;;1.50;;
14348;SDS011;7258;50.376;8.742;2023-02-26T10:46:33;2.03;;;1.27;;
14348;SDS011;7258;50.376;8.742;2023-02-26T10:48:51;1.40;;;1.30;;
14348;SDS011;7258;50.376;8.742;2023-02-26T10:51:00;1.60;;;1.20;;
14348;SDS011;7258;50.376;8.742;2023-02-26T10:53:11;2.80;;;1.60;;
14348;SDS011;7258;50.376;8.742;2023-02-26T10:55:27;2.87;;;1.50;;
14348;SDS011;7258;50.376;8.742;2023-02-26T10:57:34;2.03;;;1.53;;
14348;SDS011;7258;50.376;8.742;2023-02-26T10:59:40;1.47;;;1.37;;
14348;SDS011;7258;50.376;8.742;2023-02-26T11:01:43;1.30;;;1.20;;
14348;SDS011;7258;50.376;8.742;2023-02-26T11:03:46;2.00;;;1.40;;
14348;SDS011;7258;50.376;8.742;2023-02-26T11:05:51;1.90;;;1.50;;
14348;SDS011;7258;50.376;8.742;2023-02-26T11:07:57;1.50;;;1.40;;
14348;SDS011;7258;50.376;8.742;2023-02-26T11:10:03;1.40;;;1.30;;
14348;SDS011;7258;50.376;8.742;2023-02-26T11:12:16;1.97;;;1.30;;
14348;SDS011;7258;50.376;8.742;2023-02-26T11:14:20;2.67;;;1.60;;
14348;SDS011;7258;50.376;8.742;2023-02-26T11:16:27;2.10;;;1.30;;
14348;SDS011;7258;50.376;8.742;2023-02-26T11:18:35;3.00;;;1.60;;
14348;SDS011;7258;50.376;8.742;2023-02-26T11:20:41;2.53;;;1.70;;
14348;SDS011;7258;50.376;8.742;2023-02-26T11:22:47;3.40;;;1.30;;
14348;SDS011;7258;50.376;8.742;2023-02-26T11:24:53;1.30;;;1.20;;
14348;SDS011;7258;50.376;8.742;2023-02-26T11:26:58;1.90;;;1.20;;
14348;SDS011;7258;50.376;8.742;2023-02-26T11:29:06;3.07;;;1.50;;
14348;SDS011;7258;50.376;8.742;2023-02-26T11:31:16;2.03;;;1.50;;
14348;SDS011;7258;50.376;8.742;2023-02-26T11:33:22;1.40;;;1.30;;
14348;SDS011;7258;50.376;8.742;2023-02-26T11:35:28;1.60;;;1.30;;
14348;SDS011;7258;50.376;8.742;2023-02-26T11:37:33;1.60;;;1.50;;
14348;SDS011;7258;50.376;8.742;2023-02-26T11:39:37;2.43;;;1.50;;
14348;SDS011;7258;50.376;8.742;2023-02-26T11:41:41;1.50;;;1.30;;
14348;SDS011;7258;50.376;8.742;2023-02-26T11:43:47;1.30;;;1.20;;
14348;SDS011;7258;50.376;8.742;2023-02-26T11:46:05;1.73;;;1.40;;
14348;SDS011;7258;50.376;8.742;2023-02-26T11:48:13;1.73;;;1.30;;
14348;SDS011;7258;50.376;8.742;2023-02-26T11:50:21;2.77;;;1.40;;
14348;SDS011;7258;50.376;8.742;2023-02-26T11:52:27;1.27;;;1.20;;
14348;SDS011;7258;50.376;8.742;2023-02-26T11:54:33;2.07;;;1.50;;
14348;SDS011;7258;50.376;8.742;2023-02-26T11:56:38;1.87;;;1.50;;
14348;SDS011;7258;50.376;8.742;2023-02-26T11:58:44;2.63;;;1.40;;
14348;SDS011;7258;50.376;8.742;2023-02-26T12:00:48;2.57;;;1.50;;
14348;SDS011;7258;50.376;8.742;2023-02-26T12:02:57;1.93;;;1.40;;
14348;SDS011;7258;50.376;8.742;2023-02-26T12:05:02;2.27;;;1.50;;
14348;SDS011;7258;50.376;8.742;2023-02-26T12:07:08;2.10;;;1.30;;
14348;SDS011;7258;50.376;8.742;2023-02-26T12:09:15;1.73;;;1.57;;
14348;SDS011;7258;50.376;8.742;2023-02-26T12:11:29;1.30;;;1.20;;
14348;SDS011;7258;50.376;8.742;2023-02-26T12:13:47;2.30;;;1.50;;
14348;SDS011;7258;50.376;8.742;2023-02-26T12:16:04;1.97;;;1.40;;
14348;SDS011;7258;50.376;8.742;2023-02-26T12:18:29;1.30;;;1.10;;
14348;SDS011;7258;50.376;8.742;2023-02-26T12:20:46;2.97;;;1.23;;
14348;SDS011;7258;50.376;8.742;2023-02-26T12:23:03;1.57;;;1.30;;
14348;SDS011;7258;50.376;8.742;2023-02-26T12:25:19;1.83;;;1.30;;
14348;SDS011;7258;50.376;8.742;2023-02-26T12:27:29;2.40;;;1.53;;
14348;SDS011;7258;50.376;8.742;2023-02-26T12:29:47;3.13;;;1.80;;
14348;SDS011;7258;50.376;8.742;2023-02-26T12:32:14;1.60;;;1.33;;
14348;SDS011;7258;50.376;8.742;2023-02-26T12:34:40;2.57;;;1.40;;
14348;SDS011;7258;50.376;8.742;2023-02-26T12:37:12;1.87;;;1.47;;
14348;SDS011;7258;50.376;8.742;2023-02-26T12:39:30;1.83;;;1.50;;
14348;SDS011;7258;50.376;8.742;2023-02-26T12:41:48;3.50;;;1.83;;
14348;SDS011;7258;50.376;8.742;2023-02-26T12:44:00;1.97;;;1.27;;
14348;SDS011;7258;50.376;8.742;2023-02-26T12:46:11;1.60;;;1.50;;
14348;SDS011;7258;50.376;8.742;2023-02-26T12:50:57;2.00;;;1.80;;
14348;SDS011;7258;50.376;8.742;2023-02-26T12:53:16;3.43;;;2.00;;
14348;SDS011;7258;50.376;8.742;2023-02-26T12:55:35;1.43;;;1.30;;
14348;SDS011;7258;50.376;8.742;2023-02-26T12:57:53;1.90;;;1.57;;